PWSweather.com
Personal Weather Stations
Station Observations
CANDIOTINO
Barrio Candioti Norte, Santa FeAR 3000

Barrio Candioti NorteSanta FeAR 3000

Lat: -31.632778, Lon: -60.695556

Elevation: 69

Station Type: WH-1081

http://www.eltiempoensantafe.com.ar

High Low Average
Temperature 77.0°F25.0°C 46.9°F8.3°C 61.4°F16.3°C
Dew Point 46.9°F8.3°C 36.6°F2.6°C 40.5°F4.7°C
Winds 13.0 mph 20.9 kmh 0.7 mph 1.1 kmh 5.0 mph SE8.0 kmh SE
Wind Gusts 18.3 mph29.5 kmh 5.4 mph8.7 kmh 11.0 mph17.7 kmh
Humidity 71% 25% 49%
Pressure 30.03 in1016.9 mb 29.83 in1010.2 mb -
Precipitation 0.00 in0.0 mm - -
Hour Temp Dew Point Humidity Winds Wind Gusts Pressure Precip Precip Rate Daily Precip Total
12:00 AM 54.9°F12.7°C 38.5°F3.6°C 54% 6.0 mph N9.7 kmh N 13.6 mph21.9 kmh 30.03 in1016.9 mb 0.00 in0.0 mm 0.00 in0.0 mm 0.00 in0.0 mm
12:15 AM 54.9°F12.7°C 39.0°F3.9°C 55% 8.3 mph N13.4 kmh N 15.2 mph24.5 kmh 30.03 in1016.9 mb 0.00 in0.0 mm 0.00 in0.0 mm 0.00 in0.0 mm
12:30 AM 54.3°F12.4°C 39.0°F3.9°C 56% 8.3 mph N13.4 kmh N 13.0 mph20.9 kmh 30.03 in1016.9 mb 0.00 in0.0 mm 0.00 in0.0 mm 0.00 in0.0 mm
12:45 AM 54.0°F12.2°C 39.1°F3.9°C 57% 5.4 mph N8.7 kmh N 13.0 mph20.9 kmh 30.03 in1016.9 mb 0.00 in0.0 mm 0.00 in0.0 mm 0.00 in0.0 mm
01:00 AM 53.6°F12.0°C 39.2°F4.0°C 58% 3.8 mph N6.1 kmh N 12.1 mph19.5 kmh 30.02 in1016.6 mb 0.00 in0.0 mm 0.00 in0.0 mm 0.00 in0.0 mm
01:15 AM 53.2°F11.8°C 40.1°F4.5°C 61% 5.4 mph N8.7 kmh N 8.3 mph13.4 kmh 30.02 in1016.6 mb 0.00 in0.0 mm 0.00 in0.0 mm 0.00 in0.0 mm
01:30 AM 53.1°F11.7°C 40.0°F4.4°C 61% 4.5 mph N7.2 kmh N 9.2 mph14.8 kmh 30.02 in1016.6 mb 0.00 in0.0 mm 0.00 in0.0 mm 0.00 in0.0 mm
01:45 AM 53.1°F11.7°C 40.4°F4.7°C 62% 3.8 mph N6.1 kmh N 8.3 mph13.4 kmh 30.02 in1016.6 mb 0.00 in0.0 mm 0.00 in0.0 mm 0.00 in0.0 mm
02:00 AM 53.4°F11.9°C 39.9°F4.4°C 60% 5.4 mph N8.7 kmh N 10.7 mph17.2 kmh 30.01 in1016.3 mb 0.00 in0.0 mm 0.00 in0.0 mm 0.00 in0.0 mm
02:15 AM 54.9°F12.7°C 39.0°F3.9°C 55% 7.6 mph N12.2 kmh N 15.9 mph25.6 kmh 30.01 in1016.3 mb 0.00 in0.0 mm 0.00 in0.0 mm 0.00 in0.0 mm
02:30 AM 54.9°F12.7°C 38.5°F3.6°C 54% 9.8 mph N15.8 kmh N 15.2 mph24.5 kmh 30.00 in1015.9 mb 0.00 in0.0 mm 0.00 in0.0 mm 0.00 in0.0 mm
02:45 AM 54.5°F12.5°C 38.2°F3.4°C 54% 7.6 mph N12.2 kmh N 14.5 mph23.3 kmh 30.00 in1015.9 mb 0.00 in0.0 mm 0.00 in0.0 mm 0.00 in0.0 mm
03:00 AM 54.3°F12.4°C 38.5°F3.6°C 55% 7.6 mph NNW12.2 kmh NNW 13.6 mph21.9 kmh 30.00 in1015.9 mb 0.00 in0.0 mm 0.00 in0.0 mm 0.00 in0.0 mm
03:15 AM 53.8°F12.1°C 38.5°F3.6°C 56% 3.8 mph N6.1 kmh N 11.4 mph18.3 kmh 30.00 in1015.9 mb 0.00 in0.0 mm 0.00 in0.0 mm 0.00 in0.0 mm
03:30 AM 52.3°F11.3°C 38.9°F3.8°C 60% 4.5 mph N7.2 kmh N 7.6 mph12.2 kmh 29.99 in1015.6 mb 0.00 in0.0 mm 0.00 in0.0 mm 0.00 in0.0 mm
03:45 AM 51.6°F10.9°C 39.4°F4.1°C 63% 5.4 mph N8.7 kmh N 6.9 mph11.1 kmh 29.99 in1015.6 mb 0.00 in0.0 mm 0.00 in0.0 mm 0.00 in0.0 mm
04:00 AM 51.1°F10.6°C 39.3°F4.1°C 64% 3.1 mph N5.0 kmh N 9.2 mph14.8 kmh 29.99 in1015.6 mb 0.00 in0.0 mm 0.00 in0.0 mm 0.00 in0.0 mm
04:15 AM 50.9°F10.5°C 39.2°F4.0°C 64% 3.8 mph N6.1 kmh N 8.3 mph13.4 kmh 29.98 in1015.2 mb 0.00 in0.0 mm 0.00 in0.0 mm 0.00 in0.0 mm
04:30 AM 50.9°F10.5°C 39.2°F4.0°C 64% 6.0 mph N9.7 kmh N 8.3 mph13.4 kmh 29.98 in1015.2 mb 0.00 in0.0 mm 0.00 in0.0 mm 0.00 in0.0 mm
04:45 AM 50.7°F10.4°C 39.0°F3.9°C 64% 3.1 mph N5.0 kmh N 9.2 mph14.8 kmh 29.97 in1014.9 mb 0.00 in0.0 mm 0.00 in0.0 mm 0.00 in0.0 mm
05:00 AM 50.2°F10.1°C 38.5°F3.6°C 64% 6.0 mph N9.7 kmh N 10.7 mph17.2 kmh 29.96 in1014.6 mb 0.00 in0.0 mm 0.00 in0.0 mm 0.00 in0.0 mm
05:15 AM 50.0°F10.0°C 38.3°F3.5°C 64% 5.4 mph N8.7 kmh N 11.4 mph18.3 kmh 29.97 in1014.9 mb 0.00 in0.0 mm 0.00 in0.0 mm 0.00 in0.0 mm
05:30 AM 49.5°F9.7°C 38.6°F3.7°C 66% 3.1 mph N5.0 kmh N 9.8 mph15.8 kmh 29.97 in1014.9 mb 0.00 in0.0 mm 0.00 in0.0 mm 0.00 in0.0 mm
05:45 AM 49.1°F9.5°C 38.6°F3.7°C 67% 3.1 mph N5.0 kmh N 6.9 mph11.1 kmh 29.96 in1014.6 mb 0.00 in0.0 mm 0.00 in0.0 mm 0.00 in0.0 mm
06:00 AM 48.7°F9.3°C 38.3°F3.5°C 67% 3.1 mph N5.0 kmh N 9.2 mph14.8 kmh 29.96 in1014.6 mb 0.00 in0.0 mm 0.00 in0.0 mm 0.00 in0.0 mm
06:15 AM 48.6°F9.2°C 38.5°F3.6°C 68% 3.8 mph NNE6.1 kmh NNE 6.0 mph9.7 kmh 29.97 in1014.9 mb 0.00 in0.0 mm 0.00 in0.0 mm 0.00 in0.0 mm
06:30 AM 48.2°F9.0°C 38.1°F3.4°C 68% 2.2 mph N3.5 kmh N 8.3 mph13.4 kmh 29.97 in1014.9 mb 0.00 in0.0 mm 0.00 in0.0 mm 0.00 in0.0 mm
06:45 AM 48.0°F8.9°C 38.3°F3.5°C 69% 2.2 mph NNE3.5 kmh NNE 8.3 mph13.4 kmh 29.96 in1014.6 mb 0.00 in0.0 mm 0.00 in0.0 mm 0.00 in0.0 mm
07:00 AM 47.7°F8.7°C 38.4°F3.6°C 70% 1.6 mph NNE2.6 kmh NNE 6.0 mph9.7 kmh 29.97 in1014.9 mb 0.00 in0.0 mm 0.00 in0.0 mm 0.00 in0.0 mm
07:15 AM 47.3°F8.5°C 38.0°F3.3°C 70% 3.8 mph N6.1 kmh N 5.4 mph8.7 kmh 29.97 in1014.9 mb 0.00 in0.0 mm 0.00 in0.0 mm 0.00 in0.0 mm
07:30 AM 46.9°F8.3°C 38.0°F3.3°C 71% 1.6 mph N2.6 kmh N 6.0 mph9.7 kmh 29.97 in1014.9 mb 0.00 in0.0 mm 0.00 in0.0 mm 0.00 in0.0 mm
07:45 AM 47.1°F8.4°C 38.2°F3.4°C 71% 1.6 mph NE2.6 kmh NE 6.9 mph11.1 kmh 29.97 in1014.9 mb 0.00 in0.0 mm 0.00 in0.0 mm 0.00 in0.0 mm
08:00 AM 48.7°F9.3°C 38.7°F3.7°C 68% 3.8 mph NNE6.1 kmh NNE 9.8 mph15.8 kmh 29.97 in1014.9 mb 0.00 in0.0 mm 0.00 in0.0 mm 0.00 in0.0 mm
08:15 AM 49.1°F9.5°C 38.2°F3.4°C 66% 4.5 mph N7.2 kmh N 12.1 mph19.5 kmh 29.97 in1014.9 mb 0.00 in0.0 mm 0.00 in0.0 mm 0.00 in0.0 mm
08:30 AM 50.2°F10.1°C 38.5°F3.6°C 64% 6.0 mph N9.7 kmh N 13.0 mph20.9 kmh 29.98 in1015.2 mb 0.00 in0.0 mm 0.00 in0.0 mm 0.00 in0.0 mm
08:45 AM 51.1°F10.6°C 38.9°F3.8°C 63% 6.0 mph N9.7 kmh N 9.8 mph15.8 kmh 29.98 in1015.2 mb 0.00 in0.0 mm 0.00 in0.0 mm 0.00 in0.0 mm
09:00 AM 52.5°F11.4°C 39.5°F4.2°C 61% 6.0 mph N9.7 kmh N 10.7 mph17.2 kmh 29.98 in1015.2 mb 0.00 in0.0 mm 0.00 in0.0 mm 0.00 in0.0 mm
09:15 AM 54.1°F12.3°C 39.3°F4.1°C 57% 3.1 mph N5.0 kmh N 12.1 mph19.5 kmh 29.99 in1015.6 mb 0.00 in0.0 mm 0.00 in0.0 mm 0.00 in0.0 mm
09:30 AM 56.7°F13.7°C 40.2°F4.6°C 54% 3.1 mph N5.0 kmh N 12.1 mph19.5 kmh 29.99 in1015.6 mb 0.00 in0.0 mm 0.00 in0.0 mm 0.00 in0.0 mm
09:45 AM 58.5°F14.7°C 39.9°F4.4°C 50% 7.6 mph N12.2 kmh N 13.6 mph21.9 kmh 29.99 in1015.6 mb 0.00 in0.0 mm 0.00 in0.0 mm 0.00 in0.0 mm
10:00 AM 59.9°F15.5°C 39.6°F4.2°C 47% 3.8 mph N6.1 kmh N 11.4 mph18.3 kmh 29.99 in1015.6 mb 0.00 in0.0 mm 0.00 in0.0 mm 0.00 in0.0 mm
10:15 AM 60.6°F15.9°C 39.2°F4.0°C 45% 6.9 mph N11.1 kmh N 17.4 mph28.0 kmh 30.00 in1015.9 mb 0.00 in0.0 mm 0.00 in0.0 mm 0.00 in0.0 mm
10:30 AM 61.3°F16.3°C 39.3°F4.1°C 44% 8.3 mph N13.4 kmh N 15.9 mph25.6 kmh 29.99 in1015.6 mb 0.00 in0.0 mm 0.00 in0.0 mm 0.00 in0.0 mm
10:45 AM 62.8°F17.1°C 40.0°F4.4°C 43% 6.9 mph N11.1 kmh N 16.8 mph27.0 kmh 29.99 in1015.6 mb 0.00 in0.0 mm 0.00 in0.0 mm 0.00 in0.0 mm
11:00 AM 64.4°F18.0°C 40.8°F4.9°C 42% 8.3 mph N13.4 kmh N 16.8 mph27.0 kmh 29.99 in1015.6 mb 0.00 in0.0 mm 0.00 in0.0 mm 0.00 in0.0 mm
11:15 AM 66.4°F19.1°C 40.7°F4.8°C 39% 13.0 mph N20.9 kmh N 17.4 mph28.0 kmh 29.99 in1015.6 mb 0.00 in0.0 mm 0.00 in0.0 mm 0.00 in0.0 mm
11:30 AM 67.5°F19.7°C 41.0°F5.0°C 38% 6.9 mph N11.1 kmh N 13.0 mph20.9 kmh 29.98 in1015.2 mb 0.00 in0.0 mm 0.00 in0.0 mm 0.00 in0.0 mm
11:45 AM 68.2°F20.1°C 40.2°F4.6°C 36% 6.9 mph N11.1 kmh N 17.4 mph28.0 kmh 29.98 in1015.2 mb 0.00 in0.0 mm 0.00 in0.0 mm 0.00 in0.0 mm
12:00 PM 68.5°F20.3°C 39.1°F3.9°C 34% 6.0 mph N9.7 kmh N 18.3 mph29.5 kmh 29.98 in1015.2 mb 0.00 in0.0 mm 0.00 in0.0 mm 0.00 in0.0 mm
12:15 PM 70.3°F21.3°C 39.1°F3.9°C 32% 3.1 mph N5.0 kmh N 15.9 mph25.6 kmh 29.97 in1014.9 mb 0.00 in0.0 mm 0.00 in0.0 mm 0.00 in0.0 mm
12:30 PM 70.7°F21.5°C 37.8°F3.2°C 30% 8.3 mph N13.4 kmh N 18.3 mph29.5 kmh 29.96 in1014.6 mb 0.00 in0.0 mm 0.00 in0.0 mm 0.00 in0.0 mm
12:45 PM 73.2°F22.9°C 38.2°F3.4°C 28% 7.6 mph N12.2 kmh N 15.2 mph24.5 kmh 29.96 in1014.6 mb 0.00 in0.0 mm 0.00 in0.0 mm 0.00 in0.0 mm
01:00 PM 73.4°F23.0°C 37.4°F3.0°C 27% 8.3 mph N13.4 kmh N 16.8 mph27.0 kmh 29.94 in1013.9 mb 0.00 in0.0 mm 0.00 in0.0 mm 0.00 in0.0 mm
01:15 PM 73.6°F23.1°C 36.6°F2.6°C 26% 3.1 mph NNW5.0 kmh NNW 13.0 mph20.9 kmh 29.94 in1013.9 mb 0.00 in0.0 mm 0.00 in0.0 mm 0.00 in0.0 mm
01:30 PM 75.4°F24.1°C 39.1°F3.9°C 27% 6.9 mph NNE11.1 kmh NNE 13.6 mph21.9 kmh 29.93 in1013.5 mb 0.00 in0.0 mm 0.00 in0.0 mm 0.00 in0.0 mm
01:45 PM 75.9°F24.4°C 37.6°F3.1°C 25% 6.9 mph NNE11.1 kmh NNE 15.2 mph24.5 kmh 29.91 in1012.9 mb 0.00 in0.0 mm 0.00 in0.0 mm 0.00 in0.0 mm
02:00 PM 75.2°F24.0°C 39.0°F3.9°C 27% 6.0 mph N9.7 kmh N 15.2 mph24.5 kmh 29.90 in1012.5 mb 0.00 in0.0 mm 0.00 in0.0 mm 0.00 in0.0 mm
02:15 PM 75.9°F24.4°C 39.6°F4.2°C 27% 6.0 mph NE9.7 kmh NE 13.6 mph21.9 kmh 29.89 in1012.2 mb 0.00 in0.0 mm 0.00 in0.0 mm 0.00 in0.0 mm
02:30 PM 75.7°F24.3°C 39.4°F4.1°C 27% 4.5 mph ENE7.2 kmh ENE 15.2 mph24.5 kmh 29.89 in1012.2 mb 0.00 in0.0 mm 0.00 in0.0 mm 0.00 in0.0 mm
02:45 PM 75.7°F24.3°C 38.5°F3.6°C 26% 5.4 mph NE8.7 kmh NE 13.6 mph21.9 kmh 29.88 in1011.9 mb 0.00 in0.0 mm 0.00 in0.0 mm 0.00 in0.0 mm
03:00 PM 76.1°F24.5°C 38.8°F3.8°C 26% 9.2 mph NNE14.8 kmh NNE 14.5 mph23.3 kmh 29.87 in1011.5 mb 0.00 in0.0 mm 0.00 in0.0 mm 0.00 in0.0 mm
03:15 PM 76.3°F24.6°C 38.9°F3.8°C 26% 4.5 mph NE7.2 kmh NE 11.4 mph18.3 kmh 29.86 in1011.2 mb 0.00 in0.0 mm 0.00 in0.0 mm 0.00 in0.0 mm
03:30 PM 77.0°F25.0°C 38.5°F3.6°C 25% 4.5 mph NE7.2 kmh NE 14.5 mph23.3 kmh 29.86 in1011.2 mb 0.00 in0.0 mm 0.00 in0.0 mm 0.00 in0.0 mm
03:45 PM 76.8°F24.9°C 39.4°F4.1°C 26% 7.6 mph NE12.2 kmh NE 17.4 mph28.0 kmh 29.85 in1010.8 mb 0.00 in0.0 mm 0.00 in0.0 mm 0.00 in0.0 mm
04:00 PM 77.0°F25.0°C 39.5°F4.2°C 26% 5.4 mph NNE8.7 kmh NNE 13.6 mph21.9 kmh 29.85 in1010.8 mb 0.00 in0.0 mm 0.00 in0.0 mm 0.00 in0.0 mm
04:15 PM 77.0°F25.0°C 40.5°F4.7°C 27% 5.4 mph NNE8.7 kmh NNE 16.8 mph27.0 kmh 29.84 in1010.5 mb 0.00 in0.0 mm 0.00 in0.0 mm 0.00 in0.0 mm
04:30 PM 76.5°F24.7°C 41.9°F5.5°C 29% 3.8 mph NNE6.1 kmh NNE 12.1 mph19.5 kmh 29.84 in1010.5 mb 0.00 in0.0 mm 0.00 in0.0 mm 0.00 in0.0 mm
04:45 PM 77.0°F25.0°C 41.4°F5.2°C 28% 7.6 mph NNE12.2 kmh NNE 12.1 mph19.5 kmh 29.84 in1010.5 mb 0.00 in0.0 mm 0.00 in0.0 mm 0.00 in0.0 mm
05:00 PM 76.3°F24.6°C 43.5°F6.4°C 31% 5.4 mph NE8.7 kmh NE 13.0 mph20.9 kmh 29.84 in1010.5 mb 0.00 in0.0 mm 0.00 in0.0 mm 0.00 in0.0 mm
05:15 PM 75.4°F24.1°C 44.3°F6.8°C 33% 3.8 mph N6.1 kmh N 14.5 mph23.3 kmh 29.84 in1010.5 mb 0.00 in0.0 mm 0.00 in0.0 mm 0.00 in0.0 mm
05:30 PM 75.2°F24.0°C 45.7°F7.6°C 35% 3.1 mph NE5.0 kmh NE 9.8 mph15.8 kmh 29.84 in1010.5 mb 0.00 in0.0 mm 0.00 in0.0 mm 0.00 in0.0 mm
06:00 PM 73.4°F23.0°C 45.6°F7.6°C 37% 4.5 mph NE7.2 kmh NE 10.7 mph17.2 kmh 29.84 in1010.5 mb 0.00 in0.0 mm 0.00 in0.0 mm 0.00 in0.0 mm
06:15 PM 73.0°F22.8°C 46.6°F8.1°C 39% 4.5 mph NE7.2 kmh NE 9.8 mph15.8 kmh 29.83 in1010.2 mb 0.00 in0.0 mm 0.00 in0.0 mm 0.00 in0.0 mm
06:30 PM 70.7°F21.5°C 46.5°F8.1°C 42% 4.5 mph NE7.2 kmh NE 10.7 mph17.2 kmh 29.83 in1010.2 mb 0.00 in0.0 mm 0.00 in0.0 mm 0.00 in0.0 mm
06:45 PM 68.0°F20.0°C 46.5°F8.1°C 46% 6.9 mph NNE11.1 kmh NNE 9.8 mph15.8 kmh 29.83 in1010.2 mb 0.00 in0.0 mm 0.00 in0.0 mm 0.00 in0.0 mm
07:00 PM 66.7°F19.3°C 46.4°F8.0°C 48% 3.8 mph NNE6.1 kmh NNE 7.6 mph12.2 kmh 29.83 in1010.2 mb 0.00 in0.0 mm 0.00 in0.0 mm 0.00 in0.0 mm
07:15 PM 65.5°F18.6°C 46.9°F8.3°C 51% 4.5 mph NE7.2 kmh NE 9.2 mph14.8 kmh 29.83 in1010.2 mb 0.00 in0.0 mm 0.00 in0.0 mm 0.00 in0.0 mm
07:30 PM 64.8°F18.2°C 45.7°F7.6°C 50% 4.5 mph NE7.2 kmh NE 8.3 mph13.4 kmh 29.83 in1010.2 mb 0.00 in0.0 mm 0.00 in0.0 mm 0.00 in0.0 mm
07:45 PM 64.6°F18.1°C 44.5°F6.9°C 48% 4.5 mph NE7.2 kmh NE 9.2 mph14.8 kmh 29.84 in1010.5 mb 0.00 in0.0 mm 0.00 in0.0 mm 0.00 in0.0 mm
08:00 PM 64.2°F17.9°C 44.7°F7.1°C 49% 3.1 mph NNE5.0 kmh NNE 6.9 mph11.1 kmh 29.84 in1010.5 mb 0.00 in0.0 mm 0.00 in0.0 mm 0.00 in0.0 mm
08:15 PM 64.0°F17.8°C 44.5°F6.9°C 49% 3.8 mph NNE6.1 kmh NNE 8.3 mph13.4 kmh 29.84 in1010.5 mb 0.00 in0.0 mm 0.00 in0.0 mm 0.00 in0.0 mm
08:30 PM 63.7°F17.6°C 44.7°F7.1°C 50% 3.1 mph NE5.0 kmh NE 9.8 mph15.8 kmh 29.84 in1010.5 mb 0.00 in0.0 mm 0.00 in0.0 mm 0.00 in0.0 mm
08:45 PM 64.0°F17.8°C 41.7°F5.4°C 44% 0.7 mph NE1.1 kmh NE 8.3 mph13.4 kmh 29.85 in1010.8 mb 0.00 in0.0 mm 0.00 in0.0 mm 0.00 in0.0 mm
09:00 PM 63.5°F17.5°C 41.8°F5.4°C 45% 2.2 mph NE3.5 kmh NE 8.3 mph13.4 kmh 29.85 in1010.8 mb 0.00 in0.0 mm 0.00 in0.0 mm 0.00 in0.0 mm
09:15 PM 62.8°F17.1°C 42.3°F5.7°C 47% 1.6 mph NNE2.6 kmh NNE 6.9 mph11.1 kmh 29.86 in1011.2 mb 0.00 in0.0 mm 0.00 in0.0 mm 0.00 in0.0 mm
09:30 PM 62.1°F16.7°C 43.2°F6.2°C 50% 2.2 mph N3.5 kmh N 5.4 mph8.7 kmh 29.86 in1011.2 mb 0.00 in0.0 mm 0.00 in0.0 mm 0.00 in0.0 mm
09:45 PM 61.9°F16.6°C 43.1°F6.2°C 50% 3.1 mph NNE5.0 kmh NNE 8.3 mph13.4 kmh 29.86 in1011.2 mb 0.00 in0.0 mm 0.00 in0.0 mm 0.00 in0.0 mm
10:00 PM 61.3°F16.3°C 43.1°F6.2°C 51% 3.1 mph NNE5.0 kmh NNE 8.3 mph13.4 kmh 29.86 in1011.2 mb 0.00 in0.0 mm 0.00 in0.0 mm 0.00 in0.0 mm
10:15 PM 61.0°F16.1°C 42.7°F5.9°C 51% 3.8 mph NNE6.1 kmh NNE 9.8 mph15.8 kmh 29.87 in1011.5 mb 0.00 in0.0 mm 0.00 in0.0 mm 0.00 in0.0 mm
10:30 PM 60.4°F15.8°C 42.7°F5.9°C 52% 4.5 mph N7.2 kmh N 8.3 mph13.4 kmh 29.87 in1011.5 mb 0.00 in0.0 mm 0.00 in0.0 mm 0.00 in0.0 mm
10:45 PM 59.9°F15.5°C 42.7°F5.9°C 53% 3.1 mph N5.0 kmh N 6.9 mph11.1 kmh 29.88 in1011.9 mb 0.00 in0.0 mm 0.00 in0.0 mm 0.00 in0.0 mm
11:00 PM 59.5°F15.3°C 42.9°F6.1°C 54% 5.4 mph N8.7 kmh N 9.2 mph14.8 kmh 29.88 in1011.9 mb 0.00 in0.0 mm 0.00 in0.0 mm 0.00 in0.0 mm
11:15 PM 59.2°F15.1°C 44.4°F6.9°C 58% 3.8 mph NNE6.1 kmh NNE 7.6 mph12.2 kmh 29.89 in1012.2 mb 0.00 in0.0 mm 0.00 in0.0 mm 0.00 in0.0 mm
11:30 PM 59.0°F15.0°C 43.8°F6.6°C 57% 3.1 mph NNE5.0 kmh NNE 6.9 mph11.1 kmh 29.89 in1012.2 mb 0.00 in0.0 mm 0.00 in0.0 mm 0.00 in0.0 mm
11:45 PM 58.5°F14.7°C 44.6°F7.0°C 60% 3.1 mph NE5.0 kmh NE 7.6 mph12.2 kmh 29.89 in1012.2 mb 0.00 in0.0 mm 0.00 in0.0 mm 0.00 in0.0 mm